Aviation Digital Data Service (ADDS)

Output produced by METARs form (1723 UTC 09 December 2016)
found at http://aviationweather.gov/adds/metars/
 
KMPV 091237Z 0913/1012 32014G24KT 2SM -SN OVC020 
     TEMPO 0913/0916 1 1/2SM -SN OVC018 
     FM091600 31014G24KT P6SM VCSH SCT020 OVC035 
     FM100600 31009KT P6SM OVC040